createdAt,value
2019-01-11T00:00:49.308Z,74.63
2019-01-11T00:01:49.292Z,75.15
2019-01-11T00:02:49.283Z,74.84
2019-01-11T00:03:49.276Z,74.77
2019-01-11T00:04:49.274Z,74.74
2019-01-11T00:05:49.248Z,74.84
2019-01-11T00:06:49.239Z,75.36
2019-01-11T00:07:49.232Z,75.36
2019-01-11T00:08:49.218Z,74.95
2019-01-11T00:09:49.229Z,75.18
2019-01-11T00:10:49.204Z,74.84
2019-01-11T00:11:49.200Z,75.08
2019-01-11T00:12:58.378Z,74.84
2019-01-11T00:13:58.399Z,75.05
2019-01-11T00:14:49.160Z,75.05
2019-01-11T00:15:49.151Z,75.46
2019-01-11T00:16:49.129Z,75.36
2019-01-11T00:17:49.122Z,75.05
2019-01-11T00:18:49.110Z,75.29
2019-01-11T00:19:49.151Z,75.60
2019-01-11T00:20:49.090Z,74.77
2019-01-11T00:21:49.077Z,75.40
2019-01-11T00:22:49.068Z,75.40
2019-01-11T00:23:49.058Z,75.50
2019-01-11T00:24:49.047Z,75.40
2019-01-11T00:25:49.054Z,75.81
2019-01-11T00:26:49.028Z,76.02
2019-01-11T00:27:49.013Z,75.92
2019-01-11T00:28:49.003Z,75.92
2019-01-11T00:29:48.997Z,76.02
2019-01-11T00:30:48.999Z,76.12
2019-01-11T00:31:48.973Z,76.02
2019-01-11T00:32:48.962Z,76.02
2019-01-11T00:33:48.949Z,76.33
2019-01-11T00:34:48.940Z,75.92
2019-01-11T00:35:48.948Z,75.98
2019-01-11T00:36:48.920Z,75.78
2019-01-11T00:37:48.907Z,75.67
2019-01-11T00:38:48.898Z,75.26
2019-01-11T00:39:48.884Z,76.20
2019-01-11T00:40:48.889Z,75.57
2019-01-11T00:41:48.867Z,76.20
2019-01-11T00:42:48.861Z,75.26
2019-01-11T00:43:48.842Z,75.78
2019-01-11T00:44:48.835Z,75.67
2019-01-11T00:45:48.844Z,75.40
2019-01-11T00:46:48.818Z,75.26
2019-01-11T00:47:48.800Z,76.09
2019-01-11T00:48:48.798Z,75.78
2019-01-11T00:49:48.810Z,75.26
2019-01-11T00:50:48.783Z,75.26
2019-01-11T00:51:48.763Z,75.92
2019-01-11T00:52:48.754Z,75.78
2019-01-11T00:53:48.738Z,75.88
2019-01-11T00:54:48.727Z,76.30
2019-01-11T00:55:48.729Z,76.33
2019-01-11T00:56:48.706Z,75.88
2019-01-11T00:57:48.693Z,75.88
2019-01-11T00:58:48.694Z,75.46
2019-01-11T00:59:48.672Z,76.51
2019-01-11T01:00:48.677Z,76.23
2019-01-11T01:01:48.651Z,75.81
2019-01-11T01:02:48.642Z,75.78
2019-01-11T01:03:48.634Z,75.78
2019-01-11T01:04:48.622Z,76.30
2019-01-11T01:05:48.623Z,76.12
2019-01-11T01:06:48.639Z,76.12
2019-01-11T01:07:48.591Z,76.23
2019-01-11T01:08:48.578Z,76.23
2019-01-11T01:09:48.571Z,76.02
2019-01-11T01:10:48.567Z,76.23
2019-01-11T01:11:48.545Z,75.92
2019-01-11T01:12:48.534Z,76.23
2019-01-11T01:13:48.524Z,75.81
2019-01-11T01:14:48.514Z,76.65
2019-01-11T01:15:48.520Z,76.12
2019-01-11T01:16:48.499Z,76.65
2019-01-11T01:17:48.485Z,76.12
2019-01-11T01:18:48.470Z,76.02
2019-01-11T01:19:48.644Z,76.02
2019-01-11T01:20:48.465Z,76.23
2019-01-11T01:21:48.442Z,76.23
2019-01-11T01:22:48.428Z,76.43
2019-01-11T01:23:48.420Z,76.02
2019-01-11T01:24:48.407Z,76.02
2019-01-11T01:25:48.407Z,76.33
2019-01-11T01:26:48.387Z,76.02
2019-01-11T01:27:48.375Z,76.12
2019-01-11T01:28:48.364Z,76.43
2019-01-11T01:29:48.351Z,76.92
2019-01-11T01:30:48.356Z,76.20
2019-01-11T01:31:48.330Z,76.09
2019-01-11T01:32:48.326Z,76.40
2019-01-11T01:33:48.313Z,75.98
2019-01-11T01:34:48.303Z,76.40
2019-01-11T01:35:48.335Z,76.61
2019-01-11T01:36:48.280Z,75.98
2019-01-11T01:37:48.270Z,76.30
2019-01-11T01:38:48.258Z,76.92
2019-01-11T01:39:48.251Z,77.13
2019-01-11T01:40:48.236Z,77.23
2019-01-11T01:41:48.242Z,77.06
2019-01-11T01:42:48.230Z,77.37
2019-01-11T01:43:48.208Z,77.13
2019-01-11T01:44:48.218Z,77.06
2019-01-11T01:45:48.207Z,77.69
2019-01-11T01:46:48.198Z,77.80
2019-01-11T01:47:48.179Z,77.37
2019-01-11T01:48:48.158Z,77.37
2019-01-11T01:49:48.155Z,77.58
2019-01-11T01:50:48.173Z,77.37
2019-01-11T01:51:48.175Z,77.69
2019-01-11T01:52:48.115Z,77.55
2019-01-11T01:53:48.116Z,78.21
2019-01-11T01:54:48.093Z,77.90
2019-01-11T01:55:48.089Z,77.58
2019-01-11T01:56:48.094Z,77.37
2019-01-11T01:57:48.063Z,77.80
2019-01-11T01:58:48.062Z,77.90
2019-01-11T01:59:48.045Z,77.90
2019-01-11T02:00:48.028Z,77.90
2019-01-11T02:01:48.035Z,77.80
2019-01-11T02:02:48.014Z,78.11
2019-01-11T02:03:47.999Z,77.90
2019-01-11T02:04:47.987Z,77.90
2019-01-11T02:05:47.976Z,77.90
2019-01-11T02:06:47.979Z,77.90
2019-01-11T02:07:47.960Z,77.90
2019-01-11T02:08:47.946Z,77.90
2019-01-11T02:09:47.933Z,77.69
2019-01-11T02:10:47.921Z,77.90
2019-01-11T02:11:47.921Z,77.90
2019-01-11T02:12:47.901Z,78.21
2019-01-11T02:13:47.893Z,78.21
2019-01-11T02:14:47.879Z,78.73
2019-01-11T02:15:47.867Z,78.73
2019-01-11T02:16:47.867Z,78.63
2019-01-11T02:17:47.842Z,77.80
2019-01-11T02:18:47.838Z,78.00
2019-01-11T02:19:47.828Z,78.11
2019-01-11T02:20:47.813Z,78.63
2019-01-11T02:21:47.811Z,78.00
2019-01-11T02:22:47.789Z,78.94
2019-01-11T02:23:47.780Z,78.73
2019-01-11T02:24:47.772Z,78.21
2019-01-11T02:25:47.762Z,78.63
2019-01-11T02:26:47.761Z,77.90
2019-01-11T02:27:47.735Z,78.21
2019-01-11T02:28:47.723Z,79.15
2019-01-11T02:29:47.718Z,78.73
2019-01-11T02:30:47.707Z,78.83
2019-01-11T02:31:47.710Z,79.05
2019-01-11T02:32:52.398Z,78.83
2019-01-11T02:33:48.675Z,78.73
2019-01-11T02:34:47.662Z,78.63
2019-01-11T02:35:47.650Z,78.66
2019-01-11T02:36:47.653Z,78.83
2019-01-11T02:37:47.629Z,78.83
2019-01-11T02:38:54.398Z,78.73
2019-01-11T02:39:47.607Z,78.83
2019-01-11T02:40:47.598Z,78.73
2019-01-11T02:41:47.599Z,78.73
2019-01-11T02:42:47.576Z,78.73
2019-01-11T02:43:47.564Z,79.15
2019-01-11T02:44:47.554Z,79.05
2019-01-11T02:45:47.544Z,78.94
2019-01-11T02:46:47.545Z,79.25
2019-01-11T02:47:47.526Z,79.25
2019-01-11T02:48:47.518Z,79.57
2019-01-11T02:49:47.502Z,79.15
2019-01-11T02:50:47.489Z,79.36
2019-01-11T02:51:47.494Z,79.98
2019-01-11T02:52:47.474Z,80.23
2019-01-11T02:53:47.464Z,79.81
2019-01-11T02:54:47.450Z,79.71
2019-01-11T02:55:47.439Z,79.36
2019-01-11T02:56:47.465Z,79.98
2019-01-11T02:57:47.416Z,80.19
2019-01-11T02:58:47.410Z,80.19
2019-01-11T02:59:47.399Z,80.44
2019-01-11T03:00:47.393Z,80.02
2019-01-11T03:01:47.374Z,80.30
2019-01-11T03:02:47.375Z,80.44
2019-01-11T03:03:47.350Z,80.44
2019-01-11T03:04:47.346Z,79.77
2019-01-11T03:05:47.332Z,79.67
2019-01-11T03:06:47.322Z,79.67
2019-01-11T03:07:47.321Z,80.40
2019-01-11T03:08:47.301Z,80.09
2019-01-11T03:09:47.292Z,80.19
2019-01-11T03:10:47.282Z,79.88
2019-01-11T03:11:47.269Z,79.67
2019-01-11T03:12:47.271Z,80.30
2019-01-11T03:13:47.246Z,80.19
2019-01-11T03:14:47.238Z,80.30
2019-01-11T03:15:47.226Z,80.40
2019-01-11T03:16:47.214Z,80.51
2019-01-11T03:17:47.218Z,80.40
2019-01-11T03:18:47.194Z,80.19
2019-01-11T03:19:47.900Z,80.19
2019-01-11T03:20:47.172Z,80.40
2019-01-11T03:21:47.166Z,80.71
2019-01-11T03:22:47.166Z,80.82
2019-01-11T03:23:47.139Z,80.92
2019-01-11T03:24:47.129Z,80.71
2019-01-11T03:25:47.121Z,81.13
2019-01-11T03:26:47.114Z,80.82
2019-01-11T03:27:47.126Z,79.77
2019-01-11T03:28:47.085Z,80.82
2019-01-11T03:29:47.076Z,80.71
2019-01-11T03:30:47.072Z,80.82
2019-01-11T03:31:47.061Z,81.34
2019-01-11T03:32:47.058Z,81.23
2019-01-11T03:33:47.034Z,81.34
2019-01-11T03:34:47.021Z,81.23
2019-01-11T03:35:47.011Z,81.02
2019-01-11T03:36:46.999Z,81.59
2019-01-11T03:37:47.007Z,81.45
2019-01-11T03:38:46.979Z,81.96
2019-01-11T03:39:46.970Z,82.17
2019-01-11T03:40:46.957Z,81.55
2019-01-11T03:41:46.947Z,81.45
2019-01-11T03:42:46.950Z,81.76
2019-01-11T03:43:46.925Z,81.76
2019-01-11T03:44:46.917Z,81.02
2019-01-11T03:45:46.904Z,81.96
2019-01-11T03:46:46.895Z,81.76
2019-01-11T03:47:46.947Z,82.07
2019-01-11T03:48:46.871Z,81.34
2019-01-11T03:49:46.866Z,81.65
2019-01-11T03:50:46.853Z,81.65
2019-01-11T03:51:46.839Z,81.65
2019-01-11T03:52:46.841Z,82.28
2019-01-11T03:53:46.818Z,81.34
2019-01-11T03:54:46.807Z,82.07
2019-01-11T03:55:46.797Z,82.48
2019-01-11T03:56:55.912Z,82.48
2019-01-11T03:57:46.831Z,82.07
2019-01-11T03:58:46.764Z,82.38
2019-01-11T03:59:46.751Z,82.80
2019-01-11T04:00:46.740Z,82.90
2019-01-11T04:01:46.739Z,82.70
2019-01-11T04:02:46.755Z,83.32
2019-01-11T04:03:46.714Z,83.32
2019-01-11T04:04:46.710Z,82.80
2019-01-11T04:05:46.689Z,82.48
2019-01-11T04:06:46.677Z,82.70
2019-01-11T04:07:46.685Z,82.48
2019-01-11T04:08:46.657Z,83.01
2019-01-11T04:09:46.644Z,83.22
2019-01-11T04:10:46.636Z,82.90
2019-01-11T04:11:46.626Z,83.22
2019-01-11T04:12:46.654Z,83.42
2019-01-11T04:13:46.602Z,82.90
2019-01-11T04:14:46.623Z,83.01
2019-01-11T04:15:46.584Z,83.22
2019-01-11T04:16:46.573Z,83.01
2019-01-11T04:17:46.558Z,83.22
2019-01-11T04:18:46.563Z,82.59
2019-01-11T04:19:46.538Z,83.53
2019-01-11T04:20:46.526Z,83.32
2019-01-11T04:21:46.518Z,83.25
2019-01-11T04:22:46.509Z,83.01
2019-01-11T04:23:46.509Z,83.74
2019-01-11T04:24:46.492Z,84.09
2019-01-11T04:25:46.487Z,84.26
2019-01-11T04:26:46.465Z,83.88
2019-01-11T04:27:46.453Z,83.88
2019-01-11T04:28:46.463Z,83.67
2019-01-11T04:29:46.435Z,83.98
2019-01-11T04:30:46.420Z,83.88
2019-01-11T04:31:46.446Z,83.98
2019-01-11T04:32:46.396Z,83.67
2019-01-11T04:33:54.973Z,83.88
2019-01-11T04:34:46.375Z,84.09
2019-01-11T04:35:46.364Z,84.09
2019-01-11T04:36:46.354Z,84.61
2019-01-11T04:37:46.342Z,84.61
2019-01-11T04:38:46.351Z,84.61
2019-01-11T04:39:46.328Z,84.82
2019-01-11T04:40:46.309Z,84.19
2019-01-11T04:41:46.299Z,85.24
2019-01-11T04:42:46.288Z,84.82
2019-01-11T04:43:46.291Z,84.50
2019-01-11T04:44:46.274Z,85.65
2019-01-11T04:45:46.269Z,85.34
2019-01-11T04:46:46.252Z,85.03
2019-01-11T04:47:46.256Z,85.13
2019-01-11T04:48:46.245Z,84.92
2019-01-11T04:49:46.218Z,85.97
2019-01-11T04:50:46.204Z,85.55
2019-01-11T04:51:55.495Z,85.44
2019-01-11T04:52:46.367Z,85.97
2019-01-11T04:53:46.193Z,85.76
2019-01-11T04:54:46.161Z,85.86
2019-01-11T04:55:46.190Z,85.97
2019-01-11T04:56:46.141Z,86.07
2019-01-11T04:57:46.131Z,85.76
2019-01-11T04:58:46.160Z,86.18
2019-01-11T04:59:46.130Z,86.38
2019-01-11T05:00:46.095Z,86.49
2019-01-11T05:01:46.088Z,86.28
2019-01-11T05:02:46.074Z,86.80
2019-01-11T05:03:46.079Z,86.49
2019-01-11T05:04:46.052Z,86.49
2019-01-11T05:05:46.043Z,87.22
2019-01-11T05:06:46.031Z,87.43
2019-01-11T05:07:46.026Z,87.43
2019-01-11T05:08:55.031Z,87.32
2019-01-11T05:09:56.028Z,87.01
2019-01-11T05:10:55.098Z,86.07
2019-01-11T05:11:55.120Z,87.22
2019-01-11T05:12:45.970Z,87.01
2019-01-11T05:13:54.661Z,87.53
2019-01-11T05:14:56.173Z,86.91
2019-01-11T05:15:55.218Z,87.39
2019-01-11T05:16:45.929Z,87.12
2019-01-11T05:17:45.915Z,87.63
2019-01-11T05:18:45.905Z,87.32
2019-01-11T05:19:45.909Z,87.32
2019-01-11T05:20:45.888Z,87.22
2019-01-11T05:21:45.880Z,87.32
2019-01-11T05:22:45.869Z,87.53
2019-01-11T05:23:45.854Z,87.63
2019-01-11T05:24:45.862Z,87.22
2019-01-11T05:25:45.833Z,87.63
2019-01-11T05:26:45.832Z,87.53
2019-01-11T05:27:45.809Z,87.43
2019-01-11T05:28:45.801Z,87.43
2019-01-11T05:29:45.802Z,86.91
2019-01-11T05:30:45.777Z,87.53
2019-01-11T05:31:45.775Z,87.60
2019-01-11T05:32:45.758Z,87.49
2019-01-11T05:33:45.744Z,87.53
2019-01-11T05:34:45.747Z,87.95
2019-01-11T05:35:45.723Z,87.74
2019-01-11T05:36:45.712Z,88.16
2019-01-11T05:37:45.702Z,87.60
2019-01-11T05:38:45.698Z,87.49
2019-01-11T05:39:45.702Z,88.12
2019-01-11T05:40:45.668Z,88.37
2019-01-11T05:41:45.661Z,89.20
2019-01-11T05:42:45.647Z,89.20
2019-01-11T05:43:45.638Z,89.31
2019-01-11T05:44:45.638Z,89.51
2019-01-11T05:45:45.617Z,88.89
2019-01-11T05:46:45.605Z,88.99
2019-01-11T05:47:45.593Z,88.47
2019-01-11T05:48:45.588Z,89.10
2019-01-11T05:49:45.596Z,89.20
2019-01-11T05:50:45.566Z,88.99
2019-01-11T05:51:45.557Z,89.10
2019-01-11T05:52:45.545Z,89.31
2019-01-11T05:53:45.530Z,89.20
2019-01-11T05:54:45.539Z,89.62
2019-01-11T05:55:45.513Z,87.84
2019-01-11T05:56:45.508Z,88.53
2019-01-11T05:57:45.496Z,89.10
2019-01-11T05:58:45.480Z,89.10
2019-01-11T05:59:45.481Z,89.20
2019-01-11T06:00:45.460Z,89.37
2019-01-11T06:01:45.445Z,89.51
2019-01-11T06:02:45.444Z,89.51
2019-01-11T06:03:45.427Z,89.16
2019-01-11T06:04:45.438Z,89.10
2019-01-11T06:05:45.454Z,89.06
2019-01-11T06:06:45.399Z,89.20
2019-01-11T06:07:45.385Z,89.10
2019-01-11T06:08:45.371Z,89.31
2019-01-11T06:09:45.380Z,89.93
2019-01-11T06:10:45.348Z,89.10
2019-01-11T06:11:45.365Z,89.41
2019-01-11T06:12:54.728Z,89.62
2019-01-11T06:13:54.783Z,89.78
2019-01-11T06:14:55.321Z,89.83
2019-01-11T06:15:45.294Z,89.93
2019-01-11T06:16:45.283Z,89.62
2019-01-11T06:17:45.272Z,89.41
2019-01-11T06:18:45.268Z,89.31
2019-01-11T06:19:45.283Z,89.83
2019-01-11T06:20:45.253Z,90.00
2019-01-11T06:21:45.231Z,89.78
2019-01-11T06:22:45.219Z,89.89
2019-01-11T06:23:45.230Z,89.62
2019-01-11T06:24:45.327Z,90.00
2019-01-11T06:25:45.195Z,89.26
2019-01-11T06:26:45.178Z,89.16
2019-01-11T06:27:45.168Z,89.78
2019-01-11T06:28:45.155Z,89.31
2019-01-11T06:29:45.205Z,89.89
2019-01-11T06:30:45.134Z,89.06
2019-01-11T06:31:45.130Z,89.16
2019-01-11T06:32:45.119Z,89.68
2019-01-11T06:33:45.103Z,88.95
2019-01-11T06:34:45.094Z,89.93
2019-01-11T06:35:45.093Z,89.89
2019-01-11T06:36:45.076Z,89.83
2019-01-11T06:37:45.066Z,89.72
2019-01-11T06:38:45.062Z,89.72
2019-01-11T06:39:45.038Z,90.10
2019-01-11T06:40:45.046Z,89.89
2019-01-11T06:41:45.024Z,90.10
2019-01-11T06:42:45.014Z,90.35
2019-01-11T06:43:45.003Z,89.78
2019-01-11T06:44:44.994Z,90.35
2019-01-11T06:45:44.989Z,89.62
2019-01-11T06:46:44.969Z,90.14
2019-01-11T06:47:44.956Z,90.14
2019-01-11T06:48:44.949Z,90.25
2019-01-11T06:49:44.943Z,90.31
2019-01-11T06:50:44.977Z,90.45
2019-01-11T06:51:44.912Z,90.14
2019-01-11T06:52:44.904Z,90.25
2019-01-11T06:53:44.889Z,90.14
2019-01-11T06:54:44.879Z,90.20
2019-01-11T06:55:44.886Z,90.14
2019-01-11T06:56:44.860Z,89.62
2019-01-11T06:57:44.849Z,89.72
2019-01-11T06:58:44.835Z,89.51
2019-01-11T06:59:44.825Z,89.93
2019-01-11T07:00:44.842Z,90.14
2019-01-11T07:01:44.805Z,90.14
2019-01-11T07:02:44.800Z,89.83
2019-01-11T07:03:44.783Z,90.35
2019-01-11T07:04:44.771Z,90.56
2019-01-11T07:05:44.866Z,90.25
2019-01-11T07:06:44.752Z,90.10
2019-01-11T07:07:44.748Z,89.89
2019-01-11T07:08:44.751Z,90.14
2019-01-11T07:09:44.717Z,90.20
2019-01-11T07:10:44.721Z,89.26
2019-01-11T07:11:44.698Z,89.89
2019-01-11T07:12:44.697Z,90.25
2019-01-11T07:13:44.675Z,90.10
2019-01-11T07:14:44.674Z,90.10
2019-01-11T07:15:44.667Z,90.14
2019-01-11T07:16:44.644Z,90.20
2019-01-11T07:17:44.695Z,90.14
2019-01-11T07:18:44.622Z,90.00
2019-01-11T07:19:44.613Z,89.58
2019-01-11T07:20:44.629Z,89.62
2019-01-11T07:21:44.589Z,90.14
2019-01-11T07:22:44.578Z,90.25
2019-01-11T07:23:44.569Z,90.14
2019-01-11T07:24:44.560Z,89.47
2019-01-11T07:25:44.577Z,89.58
2019-01-11T07:26:44.539Z,90.00
2019-01-11T07:27:44.523Z,90.35
2019-01-11T07:28:44.514Z,90.66
2019-01-11T07:29:44.502Z,90.20
2019-01-11T07:30:44.499Z,90.20
2019-01-11T07:31:44.498Z,90.20
2019-01-11T07:32:44.473Z,90.14
2019-01-11T07:33:45.311Z,90.14
2019-01-11T07:36:00.952Z,89.89
2019-01-11T07:36:57.225Z,90.10
2019-01-11T07:37:56.217Z,90.20
2019-01-11T07:38:56.203Z,90.31
2019-01-11T07:39:56.190Z,90.20
2019-01-11T07:40:56.176Z,90.20
2019-01-11T07:41:56.189Z,90.41
2019-01-11T07:42:56.156Z,90.20
2019-01-11T07:43:56.158Z,89.78
2019-01-11T07:44:56.133Z,90.20
2019-01-11T07:45:56.126Z,89.78
2019-01-11T07:46:56.126Z,89.68
2019-01-11T07:47:56.106Z,90.10
2019-01-11T07:48:56.090Z,90.10
2019-01-11T07:49:56.103Z,90.00
2019-01-11T07:50:56.070Z,89.68
2019-01-11T07:51:56.072Z,90.00
2019-01-11T07:52:56.050Z,90.20
2019-01-11T07:53:56.081Z,90.41
2019-01-11T07:54:56.031Z,90.20
2019-01-11T07:55:56.030Z,89.78
2019-01-11T07:56:56.024Z,90.52
2019-01-11T07:57:55.996Z,90.52
2019-01-11T07:58:55.994Z,90.10
2019-01-11T07:59:55.985Z,90.10
2019-01-11T08:00:55.965Z,90.10
2019-01-11T08:01:55.972Z,90.10
2019-01-11T08:02:55.946Z,90.31
2019-01-11T08:03:55.935Z,90.10
2019-01-11T08:04:55.953Z,90.41
2019-01-11T08:05:55.914Z,89.78
2019-01-11T08:06:55.921Z,90.10
2019-01-11T08:07:55.898Z,89.58
2019-01-11T08:08:55.884Z,89.89
2019-01-11T08:09:55.870Z,89.78
2019-01-11T08:10:55.863Z,90.58
2019-01-11T08:11:55.861Z,89.75
2019-01-11T08:12:55.838Z,90.06
2019-01-11T08:13:55.828Z,90.20
2019-01-11T08:14:55.823Z,90.52
2019-01-11T08:15:55.805Z,90.16
2019-01-11T08:16:55.838Z,89.85
2019-01-11T08:17:55.789Z,89.85
2019-01-11T08:18:55.776Z,90.20
2019-01-11T08:19:55.766Z,89.85
2019-01-11T08:20:56.403Z,89.32
2019-01-11T08:21:55.746Z,89.64
2019-01-11T08:22:55.743Z,90.16
2019-01-11T08:23:55.724Z,89.85
2019-01-11T08:24:55.711Z,90.06
2019-01-11T08:25:55.702Z,89.43
2019-01-11T08:26:55.694Z,89.32
2019-01-11T08:27:55.692Z,89.22
2019-01-11T08:28:55.667Z,88.91
2019-01-11T08:29:55.662Z,89.32
2019-01-11T08:30:55.648Z,89.12
2019-01-11T08:31:55.642Z,89.75
2019-01-11T08:32:55.639Z,89.64
2019-01-11T08:33:55.622Z,90.16
2019-01-11T08:34:55.617Z,89.12
2019-01-11T08:35:55.601Z,89.95
2019-01-11T08:36:55.582Z,90.16
2019-01-11T08:37:55.587Z,89.43
2019-01-11T08:38:55.566Z,89.54
2019-01-11T08:39:55.550Z,89.85
2019-01-11T08:40:55.543Z,90.06
2019-01-11T08:41:55.532Z,90.58
2019-01-11T08:42:55.530Z,89.85
2019-01-11T08:43:55.508Z,90.06
2019-01-11T08:44:55.506Z,89.75
2019-01-11T08:45:55.489Z,90.37
2019-01-11T08:46:55.480Z,90.37
2019-01-11T08:47:55.483Z,90.06
2019-01-11T08:48:55.455Z,90.26
2019-01-11T08:49:55.445Z,90.79
2019-01-11T08:50:55.437Z,90.26
2019-01-11T08:51:55.424Z,90.37
2019-01-11T08:52:55.426Z,90.64
2019-01-11T08:53:55.402Z,90.68
2019-01-11T08:54:55.392Z,90.85
2019-01-11T08:55:55.379Z,90.54
2019-01-11T08:56:55.374Z,91.10
2019-01-11T08:57:55.380Z,91.00
2019-01-11T08:58:55.389Z,91.20
2019-01-11T08:59:55.340Z,91.62
2019-01-11T09:00:55.330Z,91.47
2019-01-11T09:01:55.318Z,91.72
2019-01-11T09:02:55.319Z,91.72
2019-01-11T09:03:55.296Z,91.31
2019-01-11T09:04:55.311Z,90.95
2019-01-11T09:05:55.276Z,90.89
2019-01-11T09:06:55.265Z,90.75
2019-01-11T09:07:55.267Z,90.85
2019-01-11T09:08:55.249Z,92.00
2019-01-11T09:09:55.236Z,90.47
2019-01-11T09:10:55.222Z,90.95
2019-01-11T09:11:55.212Z,91.27
2019-01-11T09:12:55.218Z,92.00
2019-01-11T09:13:55.190Z,91.52
2019-01-11T09:14:55.183Z,91.27
2019-01-11T09:15:55.174Z,91.68
2019-01-11T09:16:55.159Z,91.58
2019-01-11T09:17:55.163Z,92.03
2019-01-11T09:18:55.140Z,91.68
2019-01-11T09:19:55.136Z,91.37
2019-01-11T09:20:55.121Z,91.78
2019-01-11T09:21:55.106Z,92.41
2019-01-11T09:22:55.113Z,91.47
2019-01-11T09:23:55.085Z,92.41
2019-01-11T09:24:55.079Z,92.35
2019-01-11T09:25:55.065Z,91.68
2019-01-11T09:26:55.052Z,91.27
2019-01-11T09:27:55.085Z,92.31
2019-01-11T09:28:55.032Z,91.89
2019-01-11T09:29:55.021Z,92.21
2019-01-11T09:30:55.020Z,91.89
2019-01-11T09:31:55.002Z,92.31
2019-01-11T09:32:55.022Z,92.31
2019-01-11T09:33:54.995Z,92.41
2019-01-11T09:34:54.973Z,92.31
2019-01-11T09:35:54.956Z,92.21
2019-01-11T09:36:54.966Z,92.52
2019-01-11T09:37:54.949Z,92.31
2019-01-11T09:38:54.943Z,92.52
2019-01-11T09:39:54.919Z,92.83
2019-01-11T09:40:54.905Z,91.89
2019-01-11T09:41:54.899Z,92.31
2019-01-11T09:42:54.893Z,92.21
2019-01-11T09:43:54.898Z,92.52
2019-01-11T09:44:54.865Z,92.62
2019-01-11T09:45:54.855Z,91.89
2019-01-11T09:46:54.843Z,92.31
2019-01-11T09:47:54.836Z,92.62
2019-01-11T09:48:54.833Z,92.10
2019-01-11T09:49:54.808Z,92.62
2019-01-11T09:50:54.798Z,92.41
2019-01-11T09:51:54.788Z,92.62
2019-01-11T09:52:54.777Z,92.21
2019-01-11T09:53:54.788Z,92.72
2019-01-11T09:54:54.756Z,92.31
2019-01-11T09:55:54.747Z,92.41
2019-01-11T09:57:03.969Z,92.62
2019-01-11T09:57:54.723Z,92.21
2019-01-11T09:58:54.723Z,92.31
2019-01-11T09:59:54.702Z,92.41
2019-01-11T10:00:59.149Z,92.52
2019-01-11T10:01:54.694Z,92.21
2019-01-11T10:02:54.671Z,92.21
2019-01-11T10:03:54.677Z,92.52
2019-01-11T10:04:54.659Z,92.62
2019-01-11T10:05:54.638Z,92.83
2019-01-11T10:06:54.628Z,92.52
2019-01-11T10:07:54.621Z,93.04
2019-01-11T10:08:54.618Z,92.93
2019-01-11T10:09:54.604Z,92.31
2019-01-11T10:10:54.588Z,92.16
2019-01-11T10:11:54.576Z,92.89
2019-01-11T10:12:54.573Z,92.93
2019-01-11T10:13:54.570Z,93.41
2019-01-11T10:14:54.545Z,93.24
2019-01-11T10:15:54.531Z,93.41
2019-01-11T10:16:54.548Z,93.56
2019-01-11T10:17:54.511Z,93.77
2019-01-11T10:18:54.514Z,92.72
2019-01-11T10:19:54.492Z,93.46
2019-01-11T10:20:54.478Z,93.14
2019-01-11T10:21:54.470Z,93.31
2019-01-11T10:22:54.468Z,93.35
2019-01-11T10:23:54.504Z,93.46
2019-01-11T10:24:54.436Z,93.46
2019-01-11T10:25:54.430Z,93.35
2019-01-11T10:26:54.414Z,94.04
2019-01-11T10:27:54.409Z,93.66
2019-01-11T10:28:54.395Z,93.41
2019-01-11T10:29:54.410Z,93.83
2019-01-11T10:31:00.574Z,93.31
2019-01-11T10:31:55.362Z,93.83
2019-01-11T10:32:54.351Z,93.73
2019-01-11T10:33:54.340Z,93.62
2019-01-11T10:34:54.402Z,93.56
2019-01-11T10:35:54.323Z,93.62
2019-01-11T10:36:54.308Z,93.10
2019-01-11T10:37:54.298Z,93.31
2019-01-11T10:38:54.287Z,93.10
2019-01-11T10:39:54.290Z,93.41
2019-01-11T10:40:54.269Z,93.83
2019-01-11T10:41:54.259Z,93.73
2019-01-11T10:42:54.253Z,93.41
2019-01-11T10:43:54.235Z,93.62
2019-01-11T10:44:54.238Z,93.10
2019-01-11T10:45:54.213Z,93.37
2019-01-11T10:46:54.204Z,93.37
2019-01-11T10:47:54.198Z,93.93
2019-01-11T10:48:54.183Z,93.37
2019-01-11T10:49:54.184Z,92.85
2019-01-11T10:50:54.161Z,93.37
2019-01-11T10:51:54.151Z,93.16
2019-01-11T10:52:54.139Z,93.68
2019-01-11T10:53:54.128Z,93.58
2019-01-11T10:54:54.166Z,93.27
2019-01-11T10:55:54.109Z,93.37
2019-01-11T10:56:54.099Z,93.58
2019-01-11T10:57:54.086Z,93.27
2019-01-11T10:58:54.076Z,93.37
2019-01-11T10:59:54.075Z,92.85
2019-01-11T11:00:54.062Z,93.37
2019-01-11T11:01:54.045Z,93.89
2019-01-11T11:02:54.032Z,93.16
2019-01-11T11:03:54.025Z,93.27
2019-01-11T11:04:54.024Z,93.48
2019-01-11T11:05:53.999Z,93.48
2019-01-11T11:06:53.993Z,93.48
2019-01-11T11:07:53.979Z,93.16
2019-01-11T11:08:53.969Z,93.23
2019-01-11T11:09:53.969Z,93.58
2019-01-11T11:10:53.956Z,93.23
2019-01-11T11:11:53.937Z,93.58
2019-01-11T11:12:53.929Z,93.68
2019-01-11T11:13:53.916Z,93.58
2019-01-11T11:14:53.915Z,93.48
2019-01-11T11:15:53.895Z,93.37
2019-01-11T11:16:53.885Z,93.37
2019-01-11T11:17:53.873Z,93.43
2019-01-11T11:18:53.883Z,93.27
2019-01-11T11:19:53.891Z,93.58
2019-01-11T11:20:53.841Z,93.23
2019-01-11T11:21:53.829Z,93.01
2019-01-11T11:22:53.821Z,92.91
2019-01-11T11:23:54.177Z,93.23
2019-01-11T11:24:53.800Z,93.12
2019-01-11T11:25:53.809Z,93.33
2019-01-11T11:26:53.779Z,93.33
2019-01-11T11:27:53.766Z,93.33
2019-01-11T11:28:53.755Z,93.64
2019-01-11T11:29:53.744Z,93.12
2019-01-11T11:30:54.767Z,93.54
2019-01-11T11:31:53.722Z,92.80
2019-01-11T11:32:53.713Z,93.12
2019-01-11T11:33:53.701Z,93.12
2019-01-11T11:34:53.693Z,93.23
2019-01-11T11:35:53.691Z,93.23
2019-01-11T11:36:53.676Z,92.08
2019-01-11T11:37:53.669Z,92.18
2019-01-11T11:38:53.651Z,92.29
2019-01-11T11:39:53.637Z,93.18
2019-01-11T11:40:53.640Z,93.43
2019-01-11T11:41:53.617Z,93.33
2019-01-11T11:42:53.616Z,93.23
2019-01-11T11:43:53.600Z,93.01
2019-01-11T11:44:53.629Z,93.33
2019-01-11T11:45:53.587Z,93.23
2019-01-11T11:46:53.562Z,93.23
2019-01-11T11:47:53.553Z,93.18
2019-01-11T11:48:53.553Z,93.33
2019-01-11T11:49:53.531Z,93.07
2019-01-11T11:50:53.543Z,93.29
2019-01-11T11:51:53.510Z,93.29
2019-01-11T11:52:53.501Z,93.39
2019-01-11T11:53:53.489Z,93.29
2019-01-11T11:54:53.478Z,93.70
2019-01-11T11:55:53.479Z,93.80
2019-01-11T11:56:53.457Z,93.80
2019-01-11T11:57:53.446Z,93.18
2019-01-11T11:58:53.534Z,93.49
2019-01-11T11:59:53.429Z,93.70
2019-01-11T12:00:53.875Z,93.18
2019-01-11T12:01:53.411Z,93.29
2019-01-11T12:02:53.455Z,92.97
2019-01-11T12:03:53.385Z,93.39
2019-01-11T12:04:53.372Z,92.51
2019-01-11T12:05:53.378Z,93.18
2019-01-11T12:06:53.351Z,93.14
2019-01-11T12:07:53.344Z,93.14
2019-01-11T12:08:53.342Z,93.07
2019-01-11T12:09:53.333Z,93.14
2019-01-11T12:10:53.328Z,93.55
2019-01-11T12:11:53.302Z,93.35
2019-01-11T12:12:53.287Z,92.82
2019-01-11T12:13:53.275Z,93.45
2019-01-11T12:14:53.265Z,93.14
2019-01-11T12:15:53.272Z,93.66
2019-01-11T12:16:53.251Z,92.51
2019-01-11T12:17:53.237Z,92.78
2019-01-11T12:18:53.240Z,93.35
2019-01-11T12:19:57.033Z,93.55
2019-01-11T12:20:53.252Z,93.62
2019-01-11T12:21:53.194Z,93.14
2019-01-11T12:22:53.183Z,93.62
2019-01-11T12:23:53.177Z,93.72
2019-01-11T12:24:53.161Z,93.66
2019-01-11T12:25:53.157Z,93.51
2019-01-11T12:26:53.226Z,93.45
2019-01-11T12:27:53.127Z,93.10
2019-01-11T12:28:53.117Z,93.41
2019-01-11T12:29:53.113Z,93.72
2019-01-11T12:30:53.102Z,93.72
2019-01-11T12:31:53.097Z,93.14
2019-01-11T12:32:53.079Z,93.30
2019-01-11T12:33:53.066Z,93.51
2019-01-11T12:34:53.054Z,93.30
2019-01-11T12:35:53.075Z,93.51
2019-01-11T12:36:53.046Z,93.72
2019-01-11T12:37:53.024Z,94.03
2019-01-11T12:38:53.012Z,93.41
2019-01-11T12:39:52.999Z,93.41
2019-01-11T12:40:52.990Z,93.16
2019-01-11T12:41:53.007Z,92.99
2019-01-11T12:42:52.968Z,93.30
2019-01-11T12:43:52.958Z,93.51
2019-01-11T12:44:52.947Z,93.10
2019-01-11T12:45:52.942Z,93.51
2019-01-11T12:46:52.938Z,93.57
2019-01-11T12:47:52.921Z,93.51
2019-01-11T12:48:52.912Z,93.41
2019-01-11T12:49:52.896Z,93.37
2019-01-11T12:50:52.884Z,93.57
2019-01-11T12:51:54.044Z,93.16
2019-01-11T12:52:52.862Z,93.78
2019-01-11T12:53:52.850Z,93.57